San Luis County Regional Airport
KSBP : now visible

Airfield :











YOU CAN JOIN US ON...

 
LOGIN :

Register | Disclaimer

   EN    FR    IT 

 









Legend :    VFR   Marginal VFR   IFR   Intensive IFR   Very Intensive IFR
Visi :
Ceiling :
>= 8 km
>= 3000ft
5 to 8 km
1000 to 3000 ft
1500m to 5 km
500 to 1000 ft
800 to 1500m
200 to 500 ft
< 800m
< 200 ft
Symbols :   Thunderstorms  Fog  Heavy snow  Heavy precipitations  Wind > 20 kt







- Airport Elevation : 212 ft
- IATA code : SBP


KSBP - San Luis County Regional

CURRENT METAR :
  • 190156Z 31004KT 10SM CLR 14/09 A2995 RMK AO2 SLP143 T01440089 $

EXPIRED METARs :
  • 190056Z 30005KT 10SM CLR 16/09 A2995 RMK AO2 RAB09E29 SLP143 P0000 T01610094 $
  • 182356Z 30008KT 10SM CLR 17/11 A2995 RMK AO2 SLP142 T01720106 10228 20172 56007 $

TAF KSBP
Valid from the 19 at 00:00 until the 20 at 00:00 UTC


182346Z 1900/1924 25008KT P6SM SKC
FM190500 VRB03KT 5SM BR BKN005
FM191000 VRB03KT 1/2SM FG VV002
FM191600 VRB03KT 2SM BR BKN004
FM191700 16006KT P6SM BKN200
FM192000 23008KT P6SM BKN150
FM192300 23008KT P6SM VCSH BKN100
KZLA FIR / North America



MET'MAP, your aeronautical weather chart ! - Copyright ORBIFLY December 2007 - Disclaimer

ORBIFLY MET'MAP TEAM :

Programming & Development : Alexandra Zaïnal
Concept & Development : Baudouin d'Aumeries
Co-Development & Prog : Marc-Olivier Méhu
Technical & hardware support : Manuel Goepfert

Contact : metmap@orbifly.com




SOURCES & CREDITS :

   NOAA       Earth
Advisory